Time;durP1;ratioP1;P1;durP2;ratioP2;P2;SDS_P1;SDS_P2;PMS_P1;PMS_P2;Temp;Humidity;BMP_temperature;BMP_pressure;BME280_temperature;BME280_humidity;BME280_pressure;Samples;Min_cycle;Max_cycle;Signal;HPM_P1;HPM_P2
2023/12/19 00:00:38;;;;;;;17.65;10.68;;;;;;;;;;2081268;28;20042;-58
2023/12/19 00:01:43;;;;;;;19.38;10.40;;;;;;;;;;2082018;28;20398;-58
2023/12/19 00:02:44;;;;;;;18.33;9.82;;;;;;;;;;2090925;28;20066;-59
2023/12/19 00:03:44;;;;;;;16.77;9.13;;;;;;;;;;2090935;28;20040;-58
2023/12/19 00:04:45;;;;;;;13.10;8.57;;;;;;;;;;2090837;28;20045;-58
2023/12/19 00:05:46;;;;;;;17.40;10.13;;;;;;;;;;2090806;28;20087;-57
2023/12/19 00:06:46;;;;;;;19.00;9.55;;;;;;;;;;2090259;28;20044;-57
2023/12/19 00:07:47;;;;;;;16.40;9.93;;;;;;;;;;2090923;28;20029;-58
2023/12/19 00:08:48;;;;;;;14.77;9.05;;;;;;;;;;2090773;28;20044;-58
2023/12/19 00:09:49;;;;;;;12.20;7.45;;;;;;;;;;2090406;28;20546;-57
2023/12/19 00:10:50;;;;;;;12.93;8.85;;;;;;;;;;2091049;28;20032;-58
2023/12/19 00:11:50;;;;;;;14.27;8.18;;;;;;;;;;2090761;28;20056;-58
2023/12/19 00:12:51;;;;;;;12.73;8.02;;;;;;;;;;2090759;28;20040;-58
2023/12/19 00:13:52;;;;;;;11.40;7.15;;;;;;;;;;2090388;28;20045;-58
2023/12/19 00:14:52;;;;;;;18.10;10.25;;;;;;;;;;2090495;28;20055;-58
2023/12/19 00:15:53;;;;;;;15.55;8.88;;;;;;;;;;2090926;28;20400;-59
2023/12/19 00:16:54;;;;;;;14.07;8.50;;;;;;;;;;2089912;28;20072;-58
2023/12/19 00:17:55;;;;;;;13.32;7.80;;;;;;;;;;2089916;28;20037;-58
2023/12/19 00:18:55;;;;;;;16.25;9.77;;;;;;;;;;2090434;28;20037;-58
2023/12/19 00:19:56;;;;;;;14.65;9.30;;;;;;;;;;2090485;28;20045;-58
2023/12/19 00:20:57;;;;;;;16.05;9.13;;;;;;;;;;2090813;28;20025;-58
2023/12/19 00:21:58;;;;;;;15.68;9.35;;;;;;;;;;2090615;28;20029;-59
2023/12/19 00:22:58;;;;;;;15.32;9.25;;;;;;;;;;2090380;28;20056;-58
2023/12/19 00:23:59;;;;;;;16.17;8.48;;;;;;;;;;2090657;28;20044;-59
2023/12/19 00:25:00;;;;;;;17.13;9.57;;;;;;;;;;2090603;28;20049;-58
2023/12/19 00:26:00;;;;;;;14.70;8.77;;;;;;;;;;2090634;28;20025;-60
2023/12/19 00:27:02;;;;;;;15.30;8.45;;;;;;;;;;2090460;28;20048;-60
2023/12/19 00:28:02;;;;;;;14.23;9.32;;;;;;;;;;2090621;28;20044;-60
2023/12/19 00:29:03;;;;;;;14.82;9.10;;;;;;;;;;2090939;28;20106;-60
2023/12/19 00:30:04;;;;;;;15.30;9.13;;;;;;;;;;2090992;28;20033;-60
2023/12/19 00:31:05;;;;;;;13.52;8.32;;;;;;;;;;2090967;28;20036;-58
2023/12/19 00:32:06;;;;;;;15.18;8.88;;;;;;;;;;2090808;28;20068;-59
2023/12/19 00:33:06;;;;;;;14.00;8.18;;;;;;;;;;2090483;28;20389;-58
2023/12/19 00:34:07;;;;;;;18.48;8.18;;;;;;;;;;2090204;28;20040;-58
2023/12/19 00:35:08;;;;;;;14.00;8.95;;;;;;;;;;2090463;28;20032;-58
2023/12/19 00:36:09;;;;;;;14.55;8.90;;;;;;;;;;2090095;28;20065;-58
2023/12/19 00:37:09;;;;;;;14.55;8.85;;;;;;;;;;2090148;28;20036;-58
2023/12/19 00:38:10;;;;;;;14.30;9.10;;;;;;;;;;2090308;28;20528;-58
2023/12/19 00:39:11;;;;;;;13.52;8.50;;;;;;;;;;2090551;28;20119;-57
2023/12/19 00:40:12;;;;;;;13.45;8.52;;;;;;;;;;2090452;28;20036;-58
2023/12/19 00:41:13;;;;;;;13.70;8.68;;;;;;;;;;2089971;28;20054;-58
2023/12/19 00:42:14;;;;;;;13.63;8.65;;;;;;;;;;2090485;28;20035;-58
2023/12/19 00:43:14;;;;;;;13.88;8.35;;;;;;;;;;2090675;28;20037;-58
2023/12/19 00:44:15;;;;;;;13.25;8.52;;;;;;;;;;2090649;28;20021;-58
2023/12/19 00:45:16;;;;;;;13.57;8.02;;;;;;;;;;2090770;28;20028;-58
2023/12/19 00:46:17;;;;;;;13.15;7.97;;;;;;;;;;2090876;28;20370;-60
2023/12/19 00:47:17;;;;;;;13.85;8.52;;;;;;;;;;2090156;28;20037;-59
2023/12/19 00:48:18;;;;;;;13.07;7.53;;;;;;;;;;2090505;28;20025;-59
2023/12/19 00:49:19;;;;;;;15.00;8.13;;;;;;;;;;2090194;28;20055;-58
2023/12/19 00:50:19;;;;;;;14.65;8.15;;;;;;;;;;2090211;28;20049;-59
2023/12/19 00:51:21;;;;;;;11.55;7.50;;;;;;;;;;2090572;28;20033;-58
2023/12/19 00:52:21;;;;;;;13.63;7.63;;;;;;;;;;2090603;28;20377;-58
2023/12/19 00:53:23;;;;;;;12.75;8.05;;;;;;;;;;2090618;28;20029;-58
2023/12/19 00:54:23;;;;;;;13.80;7.50;;;;;;;;;;2089527;28;20036;-58
2023/12/19 00:55:24;;;;;;;14.88;7.95;;;;;;;;;;2089548;28;20037;-58
2023/12/19 00:56:25;;;;;;;11.90;7.78;;;;;;;;;;2090458;28;20432;-59
2023/12/19 00:57:26;;;;;;;15.82;9.02;;;;;;;;;;2090384;28;20040;-58
2023/12/19 00:58:27;;;;;;;15.30;7.85;;;;;;;;;;2090378;28;20517;-59
2023/12/19 00:59:27;;;;;;;13.75;7.65;;;;;;;;;;2090417;28;20032;-59
2023/12/19 01:00:28;;;;;;;13.77;8.00;;;;;;;;;;2090460;28;20341;-59
2023/12/19 01:01:29;;;;;;;15.43;8.60;;;;;;;;;;2089826;28;20504;-59
2023/12/19 01:02:31;;;;;;;12.25;7.78;;;;;;;;;;2090615;28;20025;-59
2023/12/19 01:03:32;;;;;;;13.20;7.80;;;;;;;;;;2090379;28;20048;-59
2023/12/19 01:04:33;;;;;;;13.52;7.97;;;;;;;;;;2090392;28;20389;-59
2023/12/19 01:05:33;;;;;;;13.25;7.82;;;;;;;;;;2090341;28;20052;-58
2023/12/19 01:06:35;;;;;;;14.48;8.30;;;;;;;;;;2090433;28;20040;-58
2023/12/19 01:07:36;;;;;;;13.30;7.97;;;;;;;;;;2090716;28;20048;-58
2023/12/19 01:08:36;;;;;;;13.23;8.23;;;;;;;;;;2090511;28;20021;-59
2023/12/19 01:09:37;;;;;;;13.35;8.27;;;;;;;;;;2089927;28;20064;-59
2023/12/19 01:10:38;;;;;;;13.70;8.25;;;;;;;;;;2090480;28;20462;-59
2023/12/19 01:11:38;;;;;;;16.23;8.27;;;;;;;;;;2090023;28;20037;-58
2023/12/19 01:12:39;;;;;;;15.63;9.00;;;;;;;;;;2090247;28;20028;-58
2023/12/19 01:13:40;;;;;;;13.05;8.07;;;;;;;;;;2090005;28;20049;-58
2023/12/19 01:14:41;;;;;;;13.35;8.48;;;;;;;;;;2090481;28;20060;-58
2023/12/19 01:15:42;;;;;;;14.20;8.77;;;;;;;;;;2090214;28;20036;-59
2023/12/19 01:16:42;;;;;;;18.15;9.70;;;;;;;;;;2090457;28;20037;-58
2023/12/19 01:17:43;;;;;;;16.98;9.25;;;;;;;;;;2089691;28;20053;-59
2023/12/19 01:18:44;;;;;;;17.88;8.93;;;;;;;;;;2089724;28;20040;-59
2023/12/19 01:19:44;;;;;;;14.40;8.63;;;;;;;;;;2090282;28;20048;-58
2023/12/19 01:20:47;;;;;;;12.85;8.60;;;;;;;;;;2090134;28;20400;-58
2023/12/19 01:21:48;;;;;;;16.02;8.23;;;;;;;;;;2089468;28;20041;-59
2023/12/19 01:22:48;;;;;;;14.88;8.63;;;;;;;;;;2090231;28;20037;-60
2023/12/19 01:23:49;;;;;;;14.45;8.77;;;;;;;;;;2090548;28;20060;-60
2023/12/19 01:24:50;;;;;;;14.40;8.50;;;;;;;;;;2090414;28;20040;-60
2023/12/19 01:25:51;;;;;;;13.23;8.40;;;;;;;;;;2090244;28;20037;-60
2023/12/19 01:26:51;;;;;;;16.60;9.77;;;;;;;;;;2089797;28;20500;-60
2023/12/19 01:27:52;;;;;;;14.80;8.60;;;;;;;;;;2090330;28;20025;-59
2023/12/19 01:28:53;;;;;;;16.65;9.43;;;;;;;;;;2090006;28;20052;-60
2023/12/19 01:29:53;;;;;;;15.07;9.27;;;;;;;;;;2090499;28;20049;-60
2023/12/19 01:30:54;;;;;;;18.92;9.82;;;;;;;;;;2090594;28;20342;-60
2023/12/19 01:31:55;;;;;;;17.73;9.27;;;;;;;;;;2090264;28;20056;-59
2023/12/19 01:32:56;;;;;;;19.15;9.50;;;;;;;;;;2090388;28;20036;-60
2023/12/19 01:33:57;;;;;;;18.10;8.73;;;;;;;;;;2090329;28;20484;-60
2023/12/19 01:34:58;;;;;;;15.68;8.77;;;;;;;;;;2089448;28;20052;-59
2023/12/19 01:35:58;;;;;;;16.92;9.90;;;;;;;;;;2089812;28;20033;-60
2023/12/19 01:36:59;;;;;;;18.02;8.88;;;;;;;;;;2090237;28;20370;-60
2023/12/19 01:38:00;;;;;;;14.80;9.10;;;;;;;;;;2090409;28;20055;-60
2023/12/19 01:39:01;;;;;;;17.95;9.20;;;;;;;;;;2090416;28;20054;-61
2023/12/19 01:40:01;;;;;;;19.05;10.30;;;;;;;;;;2090222;28;20045;-61
2023/12/19 01:41:02;;;;;;;17.70;9.88;;;;;;;;;;2090209;28;20041;-60
2023/12/19 01:42:03;;;;;;;17.38;10.00;;;;;;;;;;2089879;28;20427;-59
2023/12/19 01:43:14;;;;;;;17.98;10.32;;;;;;;;;;2089877;28;20045;-60
2023/12/19 01:44:16;;;;;;;18.63;10.02;;;;;;;;;;2092386;28;20032;-60
2023/12/19 01:45:19;;;;;;;18.58;11.23;;;;;;;;;;2089885;28;20037;-60
2023/12/19 01:46:19;;;;;;;17.30;10.77;;;;;;;;;;2090418;28;20353;-60
2023/12/19 01:47:20;;;;;;;21.65;10.73;;;;;;;;;;2090089;28;20059;-60
2023/12/19 01:48:21;;;;;;;19.17;11.40;;;;;;;;;;2090112;28;20036;-60
2023/12/19 01:49:22;;;;;;;26.13;14.27;;;;;;;;;;2089860;28;20392;-60
2023/12/19 01:50:23;;;;;;;27.23;14.48;;;;;;;;;;2090309;28;20033;-60
2023/12/19 01:51:24;;;;;;;21.38;12.52;;;;;;;;;;2089273;28;20041;-60
2023/12/19 01:52:24;;;;;;;20.80;11.73;;;;;;;;;;2089211;28;20426;-60
2023/12/19 01:53:25;;;;;;;20.73;12.32;;;;;;;;;;2097491;28;20500;-58
2023/12/19 01:54:26;;;;;;;21.83;12.05;;;;;;;;;;2098333;28;20020;-58
2023/12/19 01:55:27;;;;;;;18.83;10.43;;;;;;;;;;2090297;28;20040;-58
2023/12/19 01:56:27;;;;;;;18.23;11.27;;;;;;;;;;2089512;28;20038;-58
2023/12/19 01:57:28;;;;;;;19.23;10.02;;;;;;;;;;2089696;28;20040;-58
2023/12/19 01:58:30;;;;;;;16.58;10.65;;;;;;;;;;2090096;28;20473;-57
2023/12/19 01:59:30;;;;;;;18.90;11.13;;;;;;;;;;2089510;28;20385;-59
2023/12/19 02:05:36;;;;;;;18.30;9.98;;;;;;;;;;2477286;23;20019;31
2023/12/19 02:06:36;;;;;;;18.45;10.88;;;;;;;;;;2020823;29;20052;-59
2023/12/19 02:07:39;;;;;;;18.20;10.23;;;;;;;;;;2025717;29;20032;-60
2023/12/19 02:08:40;;;;;;;18.83;10.25;;;;;;;;;;2024557;29;20052;-61
2023/12/19 02:09:40;;;;;;;19.88;9.70;;;;;;;;;;2024984;29;20075;-60
2023/12/19 02:10:41;;;;;;;19.63;11.02;;;;;;;;;;2024984;29;20044;-60
2023/12/19 02:11:42;;;;;;;16.85;9.95;;;;;;;;;;2025053;29;20051;-60
2023/12/19 02:12:43;;;;;;;16.08;9.13;;;;;;;;;;2025449;29;20057;-60
2023/12/19 02:13:43;;;;;;;16.42;9.70;;;;;;;;;;2024092;29;20056;-59
2023/12/19 02:14:44;;;;;;;17.77;10.43;;;;;;;;;;2025597;29;20396;-60
2023/12/19 02:15:45;;;;;;;17.73;10.10;;;;;;;;;;2025473;29;20052;-60
2023/12/19 02:16:46;;;;;;;16.40;7.95;;;;;;;;;;2025353;29;20048;-60
2023/12/19 02:17:46;;;;;;;16.23;9.63;;;;;;;;;;2024955;29;20067;-60
2023/12/19 02:18:59;;;;;;;15.77;8.65;;;;;;;;;;2025725;29;20469;-61
2023/12/19 02:20:00;;;;;;;13.23;7.80;;;;;;;;;;2025192;29;20518;-60
2023/12/19 02:21:00;;;;;;;12.07;7.88;;;;;;;;;;2017199;29;20052;-60
2023/12/19 02:22:01;;;;;;;13.38;8.38;;;;;;;;;;2017680;29;20060;-60
2023/12/19 02:23:02;;;;;;;19.00;9.68;;;;;;;;;;2025644;29;20123;-60
2023/12/19 02:24:03;;;;;;;14.43;8.57;;;;;;;;;;2025786;29;20053;-60
2023/12/19 02:25:04;;;;;;;16.67;9.70;;;;;;;;;;2025949;29;20083;-60
2023/12/19 02:26:04;;;;;;;16.35;9.27;;;;;;;;;;2025516;29;20104;-60
2023/12/19 02:27:05;;;;;;;13.43;8.20;;;;;;;;;;2024578;29;20044;-61
2023/12/19 02:28:06;;;;;;;15.68;9.18;;;;;;;;;;2016872;29;20551;-60
2023/12/19 02:29:07;;;;;;;13.38;7.65;;;;;;;;;;2017939;29;20070;-60
2023/12/19 02:30:07;;;;;;;12.40;7.47;;;;;;;;;;2026412;29;20396;-60
2023/12/19 02:31:08;;;;;;;12.65;7.72;;;;;;;;;;2026748;29;20539;-60
2023/12/19 02:32:09;;;;;;;15.45;8.30;;;;;;;;;;2027220;29;20369;-59
2023/12/19 02:33:10;;;;;;;15.88;8.45;;;;;;;;;;2027578;29;20052;-59
2023/12/19 02:34:10;;;;;;;16.70;8.73;;;;;;;;;;2027626;29;20040;-60
2023/12/19 02:35:11;;;;;;;14.95;8.52;;;;;;;;;;2027659;29;20036;-60
2023/12/19 02:36:12;;;;;;;15.52;8.88;;;;;;;;;;2026776;29;20048;-59
2023/12/19 02:37:13;;;;;;;18.60;8.50;;;;;;;;;;2027370;29;20515;-60
2023/12/19 02:38:13;;;;;;;15.93;9.10;;;;;;;;;;2026656;29;20052;-59
2023/12/19 02:39:14;;;;;;;14.82;8.20;;;;;;;;;;2027226;29;20048;-60
2023/12/19 02:40:15;;;;;;;13.15;8.50;;;;;;;;;;2027126;29;20029;-59
2023/12/19 02:41:15;;;;;;;14.88;8.40;;;;;;;;;;2027143;29;20040;-60
2023/12/19 02:42:16;;;;;;;15.30;9.10;;;;;;;;;;2026310;29;20386;-59
2023/12/19 02:43:17;;;;;;;15.40;8.45;;;;;;;;;;2027608;29;20077;-60
2023/12/19 02:44:18;;;;;;;15.23;8.50;;;;;;;;;;2026772;29;20055;-60
2023/12/19 02:45:18;;;;;;;14.63;8.40;;;;;;;;;;2026734;29;20052;-60
2023/12/19 02:46:19;;;;;;;14.13;8.13;;;;;;;;;;2027226;29;20037;-60
2023/12/19 02:47:20;;;;;;;13.98;8.32;;;;;;;;;;2026079;29;20052;-60
2023/12/19 02:48:20;;;;;;;13.90;8.10;;;;;;;;;;2026893;29;20457;-60
2023/12/19 02:49:21;;;;;;;14.65;8.13;;;;;;;;;;2027214;29;20524;-59
2023/12/19 02:50:22;;;;;;;13.75;8.32;;;;;;;;;;2026578;29;20036;-60
2023/12/19 02:51:23;;;;;;;12.68;7.85;;;;;;;;;;2026750;29;20072;-59
2023/12/19 02:52:23;;;;;;;14.07;8.18;;;;;;;;;;2027203;29;20040;-59
2023/12/19 02:53:24;;;;;;;13.50;7.43;;;;;;;;;;2026623;29;20059;-59
2023/12/19 02:54:25;;;;;;;15.38;7.13;;;;;;;;;;2027153;29;20033;-59
2023/12/19 02:55:25;;;;;;;13.48;7.50;;;;;;;;;;2026872;29;20403;-60
2023/12/19 02:56:28;;;;;;;11.63;6.97;;;;;;;;;;2026961;29;20048;-59
2023/12/19 02:57:29;;;;;;;12.60;7.80;;;;;;;;;;2026810;29;20067;-59
2023/12/19 02:58:29;;;;;;;14.75;8.15;;;;;;;;;;2027409;29;20031;-60
2023/12/19 02:59:30;;;;;;;15.07;7.90;;;;;;;;;;2027178;29;20032;-60
2023/12/19 03:00:31;;;;;;;13.38;8.05;;;;;;;;;;2027185;29;20048;-60
2023/12/19 03:01:31;;;;;;;13.18;7.78;;;;;;;;;;2026723;29;20060;-60
2023/12/19 03:02:32;;;;;;;13.77;7.97;;;;;;;;;;2027027;29;20058;-59
2023/12/19 03:03:33;;;;;;;12.65;7.65;;;;;;;;;;2030011;29;20484;-60
2023/12/19 03:04:34;;;;;;;13.30;8.43;;;;;;;;;;2027375;29;20033;-59
2023/12/19 03:05:34;;;;;;;16.08;8.25;;;;;;;;;;2027209;29;20043;-59
2023/12/19 03:06:35;;;;;;;14.23;8.00;;;;;;;;;;2027001;29;20127;-59
2023/12/19 03:07:36;;;;;;;12.43;8.07;;;;;;;;;;2026507;29;20048;-59
2023/12/19 03:08:36;;;;;;;16.25;8.43;;;;;;;;;;2026568;29;20055;-60
2023/12/19 03:09:37;;;;;;;12.43;7.55;;;;;;;;;;2027330;29;20036;-60
2023/12/19 03:10:38;;;;;;;13.65;7.90;;;;;;;;;;2026635;29;20385;-60
2023/12/19 03:11:39;;;;;;;14.73;8.13;;;;;;;;;;2027304;29;20043;-59
2023/12/19 03:12:39;;;;;;;12.30;6.85;;;;;;;;;;2026291;29;20048;-59
2023/12/19 03:13:40;;;;;;;13.05;6.53;;;;;;;;;;2026293;29;20036;-59
2023/12/19 03:14:41;;;;;;;10.98;6.38;;;;;;;;;;2026691;29;20041;-60
2023/12/19 03:15:42;;;;;;;15.25;6.60;;;;;;;;;;2027242;29;20045;-59
2023/12/19 03:16:42;;;;;;;12.48;7.38;;;;;;;;;;2026746;29;20370;-60
2023/12/19 03:17:43;;;;;;;11.45;7.05;;;;;;;;;;2026497;29;20041;-60
2023/12/19 03:18:44;;;;;;;11.50;6.22;;;;;;;;;;2025883;29;20041;-61
2023/12/19 03:19:45;;;;;;;12.90;7.43;;;;;;;;;;2026880;29;20098;-59
2023/12/19 03:20:45;;;;;;;10.68;6.30;;;;;;;;;;2027349;29;20373;-60
2023/12/19 03:21:46;;;;;;;11.55;6.60;;;;;;;;;;2026389;29;20043;-60
2023/12/19 03:22:47;;;;;;;11.55;6.95;;;;;;;;;;2026938;29;20036;-59
2023/12/19 03:23:48;;;;;;;11.07;6.03;;;;;;;;;;2026942;29;20043;-60
2023/12/19 03:24:48;;;;;;;11.73;7.03;;;;;;;;;;2026083;29;20048;-60
2023/12/19 03:25:49;;;;;;;9.65;5.93;;;;;;;;;;2026681;29;20370;-60
2023/12/19 03:26:50;;;;;;;14.15;7.25;;;;;;;;;;2026958;29;20052;-60
2023/12/19 03:27:50;;;;;;;14.38;7.15;;;;;;;;;;2026483;29;20103;-60
2023/12/19 03:28:51;;;;;;;13.18;7.00;;;;;;;;;;2027074;29;20068;-60
2023/12/19 03:29:52;;;;;;;10.20;6.20;;;;;;;;;;2026464;29;20048;-61
2023/12/19 03:30:53;;;;;;;10.30;6.38;;;;;;;;;;2026377;29;20063;-59
2023/12/19 03:31:53;;;;;;;11.63;6.03;;;;;;;;;;2026890;29;20053;-60
2023/12/19 03:32:54;;;;;;;10.13;5.50;;;;;;;;;;2026595;29;20404;-60
2023/12/19 03:33:55;;;;;;;9.23;5.90;;;;;;;;;;2026958;29;20495;-60
2023/12/19 03:34:55;;;;;;;10.80;5.53;;;;;;;;;;2026221;29;20056;-59
2023/12/19 03:35:56;;;;;;;11.45;5.78;;;;;;;;;;2018577;29;20041;-60
2023/12/19 03:36:57;;;;;;;11.13;5.47;;;;;;;;;;2018850;29;20052;-60
2023/12/19 03:37:57;;;;;;;9.88;6.10;;;;;;;;;;2026746;29;20044;-60
2023/12/19 03:38:58;;;;;;;11.38;6.10;;;;;;;;;;2026059;29;20378;-60
2023/12/19 03:39:59;;;;;;;10.57;6.15;;;;;;;;;;2027029;29;20036;-60
2023/12/19 03:41:00;;;;;;;9.52;5.53;;;;;;;;;;2025931;29;20521;-60
2023/12/19 03:42:00;;;;;;;10.15;5.78;;;;;;;;;;2026656;29;20392;-60
2023/12/19 03:43:01;;;;;;;8.85;5.45;;;;;;;;;;2026884;29;20052;-60
2023/12/19 03:44:02;;;;;;;11.13;6.50;;;;;;;;;;2026991;29;20168;-60
2023/12/19 03:45:04;;;;;;;12.02;6.65;;;;;;;;;;2025924;29;20048;-59
2023/12/19 03:46:07;;;;;;;10.73;6.40;;;;;;;;;;2026017;29;20048;-59
2023/12/19 03:47:10;;;;;;;12.00;6.82;;;;;;;;;;2026843;29;20401;-60
2023/12/19 03:48:11;;;;;;;11.00;6.18;;;;;;;;;;2026963;29;20051;-60
2023/12/19 03:49:12;;;;;;;8.25;5.20;;;;;;;;;;2027316;29;20040;-60
2023/12/19 03:50:13;;;;;;;10.30;6.10;;;;;;;;;;2027130;29;20473;-60
2023/12/19 03:51:13;;;;;;;11.40;6.60;;;;;;;;;;2026838;29;20045;-60
2023/12/19 03:52:15;;;;;;;9.20;5.82;;;;;;;;;;2018675;29;20053;-60
2023/12/19 03:53:15;;;;;;;12.30;6.57;;;;;;;;;;2018587;29;20044;-60
2023/12/19 03:54:16;;;;;;;12.88;6.82;;;;;;;;;;2027060;29;20040;-60
2023/12/19 03:55:17;;;;;;;11.05;5.63;;;;;;;;;;2027082;29;20111;-60
2023/12/19 03:56:18;;;;;;;10.32;6.47;;;;;;;;;;2026736;29;20040;-60
2023/12/19 03:57:18;;;;;;;12.45;6.93;;;;;;;;;;2026794;29;20036;-60
2023/12/19 03:58:19;;;;;;;11.30;5.93;;;;;;;;;;2026827;29;20036;-60
2023/12/19 03:59:20;;;;;;;9.15;5.38;;;;;;;;;;2026751;29;20071;-60
2023/12/19 04:00:20;;;;;;;10.27;5.60;;;;;;;;;;2026281;29;20041;-60
2023/12/19 04:01:23;;;;;;;8.95;5.15;;;;;;;;;;2026878;29;20392;-60
2023/12/19 04:02:24;;;;;;;10.73;5.75;;;;;;;;;;2026604;29;20044;-60
2023/12/19 04:03:24;;;;;;;9.90;5.40;;;;;;;;;;2026835;29;20099;-60
2023/12/19 04:04:25;;;;;;;8.40;4.30;;;;;;;;;;2026233;29;20484;-59
2023/12/19 04:05:26;;;;;;;9.70;5.32;;;;;;;;;;2027184;29;20033;-60
2023/12/19 04:06:27;;;;;;;7.93;4.10;;;;;;;;;;2025952;29;20068;-60
2023/12/19 04:07:27;;;;;;;9.48;4.82;;;;;;;;;;2029523;29;20028;-60
2023/12/19 04:08:28;;;;;;;6.72;4.38;;;;;;;;;;2026822;29;20028;-60
2023/12/19 04:09:30;;;;;;;9.75;4.35;;;;;;;;;;2027020;29;20420;-61
2023/12/19 04:10:30;;;;;;;7.65;3.97;;;;;;;;;;2026023;29;20048;-61
2023/12/19 04:11:31;;;;;;;7.65;4.63;;;;;;;;;;2026937;29;20041;-60
2023/12/19 04:12:32;;;;;;;7.90;3.88;;;;;;;;;;2026574;29;20499;-60
2023/12/19 04:13:32;;;;;;;5.90;3.45;;;;;;;;;;2026707;29;20024;-60
2023/12/19 04:14:33;;;;;;;7.80;4.25;;;;;;;;;;2026619;29;20036;-60
2023/12/19 04:15:34;;;;;;;6.65;3.65;;;;;;;;;;2027068;29;20024;-60
2023/12/19 04:16:35;;;;;;;6.97;3.78;;;;;;;;;;2018305;29;20049;-60
2023/12/19 04:17:35;;;;;;;5.95;3.80;;;;;;;;;;2018885;29;20095;-61
2023/12/19 04:18:36;;;;;;;8.10;4.20;;;;;;;;;;2027972;29;20039;-61
2023/12/19 04:19:39;;;;;;;8.60;4.10;;;;;;;;;;2027043;29;20416;-61
2023/12/19 04:20:39;;;;;;;8.60;4.47;;;;;;;;;;2027150;29;20047;-60
2023/12/19 04:21:41;;;;;;;8.88;4.50;;;;;;;;;;2027707;29;20047;-61
2023/12/19 04:22:42;;;;;;;8.30;4.97;;;;;;;;;;2026822;29;20504;-61
2023/12/19 04:23:42;;;;;;;8.02;4.60;;;;;;;;;;2027787;29;20059;-61
2023/12/19 04:24:43;;;;;;;7.65;4.45;;;;;;;;;;2027334;29;20056;-59
2023/12/19 04:25:46;;;;;;;7.55;4.40;;;;;;;;;;2028229;29;20372;-61
2023/12/19 04:26:47;;;;;;;8.27;4.45;;;;;;;;;;2027142;29;20476;-60
2023/12/19 04:27:47;;;;;;;8.85;4.55;;;;;;;;;;2026947;29;20036;-59
2023/12/19 04:28:48;;;;;;;16.38;4.93;;;;;;;;;;2017654;29;20056;-59
2023/12/19 04:29:50;;;;;;;10.25;5.40;;;;;;;;;;2010586;29;20084;-61
2023/12/19 04:30:52;;;;;;;9.85;4.60;;;;;;;;;;2019559;29;20040;-60
2023/12/19 04:31:52;;;;;;;10.95;4.82;;;;;;;;;;2026241;29;20059;-60
2023/12/19 04:32:53;;;;;;;7.88;4.88;;;;;;;;;;2026797;29;20040;-60
2023/12/19 04:33:54;;;;;;;8.15;5.20;;;;;;;;;;2026851;29;20453;-60
2023/12/19 04:34:54;;;;;;;8.20;4.50;;;;;;;;;;2025903;29;20044;-60
2023/12/19 04:35:55;;;;;;;8.77;5.57;;;;;;;;;;2026480;29;20048;-61
2023/12/19 04:36:56;;;;;;;8.18;4.55;;;;;;;;;;2026720;29;20041;-59
2023/12/19 04:37:57;;;;;;;9.13;4.15;;;;;;;;;;2026577;29;20044;-60
2023/12/19 04:38:57;;;;;;;7.38;4.28;;;;;;;;;;2026657;29;20393;-60
2023/12/19 04:39:58;;;;;;;6.90;4.10;;;;;;;;;;2026774;29;20041;-59
2023/12/19 04:40:59;;;;;;;7.28;4.05;;;;;;;;;;2025911;29;20063;-59
2023/12/19 04:41:59;;;;;;;7.18;3.30;;;;;;;;;;2026762;29;20465;-59
2023/12/19 04:43:00;;;;;;;10.23;3.88;;;;;;;;;;2025948;29;20048;-60
2023/12/19 04:44:01;;;;;;;6.47;3.75;;;;;;;;;;2026861;29;20040;-59
2023/12/19 04:45:02;;;;;;;7.28;4.10;;;;;;;;;;2026925;29;20068;-59
2023/12/19 04:46:03;;;;;;;6.40;3.25;;;;;;;;;;2026489;29;20180;-59
2023/12/19 04:47:03;;;;;;;6.78;3.80;;;;;;;;;;2025857;29;20037;-59
2023/12/19 04:48:04;;;;;;;6.55;3.75;;;;;;;;;;2025619;29;20052;-60
2023/12/19 04:49:05;;;;;;;6.75;3.65;;;;;;;;;;2026319;29;20047;-59
2023/12/19 04:50:07;;;;;;;7.55;3.38;;;;;;;;;;2025901;29;20056;-59
2023/12/19 04:51:20;;;;;;;7.85;3.65;;;;;;;;;;2026430;29;20044;-59
2023/12/19 04:52:21;;;;;;;5.20;2.90;;;;;;;;;;2025689;29;20043;-59
2023/12/19 04:53:21;;;;;;;7.70;3.80;;;;;;;;;;2026584;29;20397;-59
2023/12/19 04:54:22;;;;;;;5.45;3.30;;;;;;;;;;2026406;29;20044;-59
2023/12/19 04:55:23;;;;;;;8.38;3.88;;;;;;;;;;2026683;29;20029;-59
2023/12/19 04:56:23;;;;;;;4.72;3.00;;;;;;;;;;2026517;29;20036;-59
2023/12/19 04:57:25;;;;;;;6.45;3.67;;;;;;;;;;2026605;29;20044;-59
2023/12/19 04:58:27;;;;;;;7.45;3.60;;;;;;;;;;2026432;29;20460;-59
2023/12/19 04:59:28;;;;;;;5.15;2.55;;;;;;;;;;2026365;29;20024;-59
2023/12/19 05:00:28;;;;;;;6.32;3.50;;;;;;;;;;2025660;29;20048;-58
2023/12/19 05:01:29;;;;;;;5.50;2.85;;;;;;;;;;2026442;29;20036;-59
2023/12/19 05:02:30;;;;;;;5.50;2.70;;;;;;;;;;2024983;29;20059;-59
2023/12/19 05:03:31;;;;;;;5.95;3.10;;;;;;;;;;2025523;29;20055;-60
2023/12/19 05:04:31;;;;;;;6.38;1.70;;;;;;;;;;2025708;29;20044;-59
2023/12/19 05:05:32;;;;;;;4.47;2.22;;;;;;;;;;2025912;29;20493;-59
2023/12/19 05:06:33;;;;;;;4.28;2.28;;;;;;;;;;2025129;29;20053;-58
2023/12/19 05:07:34;;;;;;;5.35;2.55;;;;;;;;;;2026381;29;20449;-59
2023/12/19 05:08:35;;;;;;;3.72;1.80;;;;;;;;;;2026480;29;20197;-59
2023/12/19 05:09:35;;;;;;;6.57;2.90;;;;;;;;;;2025684;29;20052;-60
2023/12/19 05:10:36;;;;;;;4.47;2.20;;;;;;;;;;2025634;29;20052;-60
2023/12/19 05:11:37;;;;;;;3.60;1.70;;;;;;;;;;2026312;29;20037;-60
2023/12/19 05:12:38;;;;;;;4.07;1.35;;;;;;;;;;2026118;29;20037;-60
2023/12/19 05:13:39;;;;;;;5.15;1.77;;;;;;;;;;2025802;29;20044;-60
2023/12/19 05:14:39;;;;;;;3.15;1.92;;;;;;;;;;2025488;29;20080;-60
2023/12/19 05:15:40;;;;;;;6.15;2.35;;;;;;;;;;2025324;29;20055;-60
2023/12/19 05:16:41;;;;;;;3.67;2.00;;;;;;;;;;2025630;29;20485;-59
2023/12/19 05:17:41;;;;;;;4.35;1.90;;;;;;;;;;2025628;29;20048;-60
2023/12/19 05:18:42;;;;;;;3.65;2.25;;;;;;;;;;2025308;29;20059;-60
2023/12/19 05:19:43;;;;;;;3.50;1.70;;;;;;;;;;2025630;29;20077;-60
2023/12/19 05:20:44;;;;;;;3.33;1.88;;;;;;;;;;2026503;29;20052;-60
2023/12/19 05:21:45;;;;;;;4.13;2.13;;;;;;;;;;2025424;29;20049;-60
2023/12/19 05:22:46;;;;;;;4.00;2.20;;;;;;;;;;2025111;29;20044;-60
2023/12/19 05:23:47;;;;;;;4.95;1.90;;;;;;;;;;2026424;29;20051;-60
2023/12/19 05:24:48;;;;;;;3.60;1.90;;;;;;;;;;2026219;29;20056;-60
2023/12/19 05:25:49;;;;;;;4.07;1.90;;;;;;;;;;2025276;29;20045;-60
2023/12/19 05:26:49;;;;;;;3.92;1.95;;;;;;;;;;2025894;29;20052;-60
2023/12/19 05:27:50;;;;;;;3.50;1.75;;;;;;;;;;2026575;29;20037;-59
2023/12/19 05:28:51;;;;;;;6.13;2.30;;;;;;;;;;2026346;29;20389;-59
2023/12/19 05:29:51;;;;;;;3.60;1.88;;;;;;;;;;2026317;29;20523;-63
2023/12/19 05:30:56;;;;;;;4.53;2.05;;;;;;;;;;2026117;29;20048;-59
2023/12/19 05:31:57;;;;;;;3.38;1.63;;;;;;;;;;2025211;29;20048;-60
2023/12/19 05:32:58;;;;;;;3.78;1.70;;;;;;;;;;2024998;29;20060;-60
2023/12/19 05:33:58;;;;;;;3.72;1.80;;;;;;;;;;2025982;29;20441;-60
2023/12/19 05:34:59;;;;;;;4.35;2.05;;;;;;;;;;2026190;29;20488;-60
2023/12/19 05:36:00;;;;;;;3.72;1.67;;;;;;;;;;2026501;29;20028;-60
2023/12/19 05:37:01;;;;;;;4.07;1.60;;;;;;;;;;2026471;29;20041;-60
2023/12/19 05:38:01;;;;;;;3.80;1.80;;;;;;;;;;2025519;29;20044;-60
2023/12/19 05:39:02;;;;;;;3.70;1.80;;;;;;;;;;2026083;29;20469;-60
2023/12/19 05:40:03;;;;;;;5.32;2.10;;;;;;;;;;2025722;29;20053;-60
2023/12/19 05:41:05;;;;;;;4.35;2.15;;;;;;;;;;2026163;29;20393;-60
2023/12/19 05:42:05;;;;;;;4.18;1.90;;;;;;;;;;2025381;29;20543;-60
2023/12/19 05:43:07;;;;;;;3.58;1.80;;;;;;;;;;2025212;29;20120;-60
2023/12/19 05:44:08;;;;;;;4.63;2.08;;;;;;;;;;2025938;29;20025;-60
2023/12/19 05:45:09;;;;;;;2.17;1.33;;;;;;;;;;2025972;29;20125;-60
2023/12/19 05:46:09;;;;;;;2.92;1.70;;;;;;;;;;2025698;29;20481;-60
2023/12/19 05:47:10;;;;;;;3.55;2.00;;;;;;;;;;2026266;29;20043;-58
2023/12/19 05:48:11;;;;;;;3.40;2.05;;;;;;;;;;2025526;29;20064;-60
2023/12/19 05:49:11;;;;;;;3.45;1.80;;;;;;;;;;2026282;29;20048;-59
2023/12/19 05:50:12;;;;;;;3.55;1.75;;;;;;;;;;2026399;29;20071;-59
2023/12/19 05:51:14;;;;;;;3.10;1.77;;;;;;;;;;2025774;29;20048;-59
2023/12/19 05:52:15;;;;;;;4.32;2.40;;;;;;;;;;2026204;29;20044;-60
2023/12/19 05:53:16;;;;;;;4.13;2.05;;;;;;;;;;2026372;29;20460;-59
2023/12/19 05:54:16;;;;;;;3.90;1.85;;;;;;;;;;2026303;29;20033;-60
2023/12/19 05:55:17;;;;;;;4.07;2.20;;;;;;;;;;2025340;29;20048;-59
2023/12/19 05:56:18;;;;;;;2.85;1.80;;;;;;;;;;2025456;29;20109;-60
2023/12/19 05:57:19;;;;;;;3.25;1.80;;;;;;;;;;2026060;29;20104;-59
2023/12/19 05:58:19;;;;;;;2.67;1.65;;;;;;;;;;2026275;29;20040;-59
2023/12/19 05:59:20;;;;;;;3.60;1.77;;;;;;;;;;2025532;29;20041;-60
2023/12/19 06:00:21;;;;;;;4.50;2.00;;;;;;;;;;2025783;29;20044;-59
2023/12/19 06:01:22;;;;;;;4.03;2.08;;;;;;;;;;2026125;29;20045;-59
2023/12/19 06:02:23;;;;;;;4.75;1.77;;;;;;;;;;2026068;29;20028;-60
2023/12/19 06:03:23;;;;;;;5.10;2.08;;;;;;;;;;2026302;29;20469;-60
2023/12/19 06:04:24;;;;;;;3.55;1.77;;;;;;;;;;2026408;29;20392;-60
2023/12/19 06:05:25;;;;;;;4.72;2.10;;;;;;;;;;2027036;29;20045;-59
2023/12/19 06:06:25;;;;;;;3.20;1.85;;;;;;;;;;2027587;29;20041;-60